This is the latest recevied weather packets stored in our database for station/object DC4AT. If no packets are shown the sender has not sent any weather packets the latest 10 day(s).
| Time | Temp. | Humidity | Pressure | Rain* | Wind** | Luminosity | Snow |
|---|---|---|---|---|---|---|---|
| 1777709024 | 17.78° C | 58% | 1021.4 hPa | 0 mm | - | 499 W/m² | - |
| 1777708424 | 17.22° C | 60% | 1021.6 hPa | 0 mm | - | 473 W/m² | - |
| 1777707824 | 16.67° C | 58% | 1021.7 hPa | 0 mm | - | 468 W/m² | - |
| 1777707224 | 16.67° C | 57% | 1021.9 hPa | 0 mm | - | 445 W/m² | - |
| 1777706624 | 16.67° C | 59% | 1022.1 hPa | 0 mm | - | 422 W/m² | - |
| 1777706024 | 16.67° C | 58% | 1022.1 hPa | 0 mm | - | 397 W/m² | - |
| 1777705424 | 16.11° C | 61% | 1022.2 hPa | 0 mm | - | 378 W/m² | - |
| 1777704824 | 16.11° C | 60% | 1022.2 hPa | 0 mm | - | 255 W/m² | - |
| 1777704224 | 15.56° C | 61% | 1022.2 hPa | 0 mm | - | 330 W/m² | - |
| 1777703624 | 15° C | 64% | 1022.2 hPa | 0 mm | - | 306 W/m² | - |
| 1777703024 | 13.89° C | 67% | 1022.2 hPa | 0 mm | - | 281 W/m² | - |
| 1777702424 | 13.33° C | 69% | 1022.2 hPa | 0 mm | - | 257 W/m² | - |
| 1777701824 | 12.22° C | 71% | 1022.4 hPa | 0 mm | - | 227 W/m² | - |
| 1777701224 | 12.22° C | 72% | 1022.4 hPa | 0 mm | - | 211 W/m² | - |
| 1777700624 | 11.67° C | 74% | 1022.5 hPa | 0 mm | - | 167 W/m² | - |
| 1777700024 | 11.11° C | 76% | 1022.6 hPa | 0 mm | - | 91 W/m² | - |
| 1777699424 | 10.56° C | 76% | 1022.7 hPa | 0 mm | - | 33 W/m² | - |
| 1777698824 | 10° C | 77% | 1022.6 hPa | 0 mm | - | 23 W/m² | - |
| 1777698224 | 9.44° C | 80% | 1022.6 hPa | 0 mm | - | 21 W/m² | - |
| 1777697624 | 8.89° C | 79% | 1022.6 hPa | 0 mm | - | 19 W/m² | - |
| 1777697024 | 8.89° C | 78% | 1022.6 hPa | 0 mm | - | 18 W/m² | - |
| 1777696424 | 9.44° C | 78% | 1022.7 hPa | 0 mm | - | 14 W/m² | - |
| 1777695824 | 8.89° C | 78% | 1022.5 hPa | 0 mm | - | 12 W/m² | - |
| 1777695224 | 9.44° C | 77% | 1022.6 hPa | 0 mm | - | 9 W/m² | - |
| 1777694624 | 9.44° C | 77% | 1022.7 hPa | 0 mm | - | 7 W/m² | - |
* Rain latest hour (hover to see other rain measurements)
** Current wind speed in m/s (hover to see current wind gust speed)